sensor_id;sensor_type;location;lat;lon;timestamp;P1;durP1;ratioP1;P2;durP2;ratioP2
53263;SDS011;39153;52.680;6.172;2023-10-13T00:01:42;66.72;;;37.88;;
53263;SDS011;39153;52.680;6.172;2023-10-13T00:04:08;63.30;;;35.80;;
53263;SDS011;39153;52.680;6.172;2023-10-13T00:06:34;60.08;;;35.40;;
53263;SDS011;39153;52.680;6.172;2023-10-13T00:08:59;56.10;;;33.78;;
53263;SDS011;39153;52.680;6.172;2023-10-13T00:11:25;76.93;;;29.15;;
53263;SDS011;39153;52.680;6.172;2023-10-13T00:13:52;63.05;;;35.55;;
53263;SDS011;39153;52.680;6.172;2023-10-13T00:16:19;61.70;;;34.72;;
53263;SDS011;39153;52.680;6.172;2023-10-13T00:18:50;72.70;;;36.78;;
53263;SDS011;39153;52.680;6.172;2023-10-13T00:21:20;61.50;;;35.72;;
53263;SDS011;39153;52.680;6.172;2023-10-13T00:23:56;54.33;;;34.38;;
53263;SDS011;39153;52.680;6.172;2023-10-13T00:26:25;61.65;;;35.80;;
53263;SDS011;39153;52.680;6.172;2023-10-13T00:28:53;62.30;;;34.53;;
53263;SDS011;39153;52.680;6.172;2023-10-13T00:31:41;60.67;;;35.70;;
53263;SDS011;39153;52.680;6.172;2023-10-13T00:34:13;73.25;;;35.55;;
53263;SDS011;39153;52.680;6.172;2023-10-13T00:36:40;68.82;;;31.45;;
53263;SDS011;39153;52.680;6.172;2023-10-13T00:39:14;61.92;;;34.97;;
53263;SDS011;39153;52.680;6.172;2023-10-13T00:41:41;74.55;;;29.17;;
53263;SDS011;39153;52.680;6.172;2023-10-13T00:44:20;74.18;;;37.10;;
53263;SDS011;39153;52.680;6.172;2023-10-13T00:47:02;67.68;;;36.97;;
53263;SDS011;39153;52.680;6.172;2023-10-13T00:49:33;68.05;;;36.95;;
53263;SDS011;39153;52.680;6.172;2023-10-13T00:52:04;69.70;;;37.75;;
53263;SDS011;39153;52.680;6.172;2023-10-13T00:54:36;64.20;;;37.80;;
53263;SDS011;39153;52.680;6.172;2023-10-13T00:57:03;76.22;;;39.65;;
53263;SDS011;39153;52.680;6.172;2023-10-13T00:59:32;70.75;;;39.85;;
53263;SDS011;39153;52.680;6.172;2023-10-13T01:02:01;70.63;;;28.90;;
53263;SDS011;39153;52.680;6.172;2023-10-13T01:04:47;62.20;;;38.97;;
53263;SDS011;39153;52.680;6.172;2023-10-13T01:07:14;65.28;;;39.22;;
53263;SDS011;39153;52.680;6.172;2023-10-13T01:09:47;63.63;;;38.67;;
53263;SDS011;39153;52.680;6.172;2023-10-13T01:12:12;55.92;;;37.45;;
53263;SDS011;39153;52.680;6.172;2023-10-13T01:14:39;62.47;;;37.85;;
53263;SDS011;39153;52.680;6.172;2023-10-13T01:17:05;61.75;;;37.20;;
53263;SDS011;39153;52.680;6.172;2023-10-13T01:19:35;56.78;;;27.45;;
53263;SDS011;39153;52.680;6.172;2023-10-13T01:22:07;54.92;;;36.35;;
53263;SDS011;39153;52.680;6.172;2023-10-13T01:24:33;54.00;;;27.35;;
53263;SDS011;39153;52.680;6.172;2023-10-13T01:27:05;56.97;;;36.05;;
53263;SDS011;39153;52.680;6.172;2023-10-13T01:29:45;51.20;;;34.10;;
53263;SDS011;39153;52.680;6.172;2023-10-13T01:32:17;59.13;;;36.55;;
53263;SDS011;39153;52.680;6.172;2023-10-13T01:34:43;52.45;;;34.90;;
53263;SDS011;39153;52.680;6.172;2023-10-13T01:37:14;58.20;;;27.70;;
53263;SDS011;39153;52.680;6.172;2023-10-13T01:39:41;59.60;;;35.65;;
53263;SDS011;39153;52.680;6.172;2023-10-13T01:42:07;51.67;;;34.75;;
53263;SDS011;39153;52.680;6.172;2023-10-13T01:44:33;54.40;;;35.45;;
53263;SDS011;39153;52.680;6.172;2023-10-13T01:46:59;63.03;;;37.67;;
53263;SDS011;39153;52.680;6.172;2023-10-13T01:49:32;52.97;;;35.28;;
53263;SDS011;39153;52.680;6.172;2023-10-13T01:52:07;62.75;;;38.15;;
53263;SDS011;39153;52.680;6.172;2023-10-13T01:54:37;54.92;;;35.90;;
53263;SDS011;39153;52.680;6.172;2023-10-13T01:57:09;54.63;;;35.17;;
53263;SDS011;39153;52.680;6.172;2023-10-13T01:59:44;53.00;;;34.80;;
53263;SDS011;39153;52.680;6.172;2023-10-13T02:02:12;63.67;;;37.70;;
53263;SDS011;39153;52.680;6.172;2023-10-13T02:04:39;57.70;;;35.85;;
53263;SDS011;39153;52.680;6.172;2023-10-13T02:07:21;61.08;;;35.92;;
53263;SDS011;39153;52.680;6.172;2023-10-13T02:09:52;57.55;;;34.97;;
53263;SDS011;39153;52.680;6.172;2023-10-13T02:12:20;55.50;;;34.35;;
53263;SDS011;39153;52.680;6.172;2023-10-13T02:14:54;54.00;;;33.80;;
53263;SDS011;39153;52.680;6.172;2023-10-13T02:17:20;56.22;;;33.60;;
53263;SDS011;39153;52.680;6.172;2023-10-13T02:19:46;57.58;;;33.10;;
53263;SDS011;39153;52.680;6.172;2023-10-13T02:22:12;50.30;;;32.35;;
53263;SDS011;39153;52.680;6.172;2023-10-13T02:24:53;48.63;;;31.88;;
53263;SDS011;39153;52.680;6.172;2023-10-13T02:27:26;49.72;;;31.38;;
53263;SDS011;39153;52.680;6.172;2023-10-13T02:29:52;50.33;;;32.50;;
53263;SDS011;39153;52.680;6.172;2023-10-13T02:32:23;47.67;;;22.63;;
53263;SDS011;39153;52.680;6.172;2023-10-13T02:34:51;46.17;;;29.80;;
53263;SDS011;39153;52.680;6.172;2023-10-13T02:37:17;43.83;;;28.58;;
53263;SDS011;39153;52.680;6.172;2023-10-13T02:39:44;49.95;;;22.40;;
53263;SDS011;39153;52.680;6.172;2023-10-13T02:42:10;44.17;;;28.73;;
53263;SDS011;39153;52.680;6.172;2023-10-13T02:44:48;45.92;;;28.20;;
53263;SDS011;39153;52.680;6.172;2023-10-13T02:47:16;50.40;;;29.27;;
53263;SDS011;39153;52.680;6.172;2023-10-13T02:49:44;53.83;;;30.13;;
53263;SDS011;39153;52.680;6.172;2023-10-13T02:52:12;56.40;;;30.08;;
53263;SDS011;39153;52.680;6.172;2023-10-13T02:54:39;53.55;;;30.58;;
53263;SDS011;39153;52.680;6.172;2023-10-13T02:57:08;55.35;;;30.75;;
53263;SDS011;39153;52.680;6.172;2023-10-13T02:59:33;58.80;;;31.92;;
53263;SDS011;39153;52.680;6.172;2023-10-13T03:02:02;59.35;;;31.83;;
53263;SDS011;39153;52.680;6.172;2023-10-13T03:04:47;59.53;;;31.85;;
53263;SDS011;39153;52.680;6.172;2023-10-13T03:07:13;55.53;;;32.63;;
53263;SDS011;39153;52.680;6.172;2023-10-13T03:09:48;61.13;;;33.40;;
53263;SDS011;39153;52.680;6.172;2023-10-13T03:12:17;52.70;;;32.30;;
53263;SDS011;39153;52.680;6.172;2023-10-13T03:14:43;62.92;;;33.90;;
53263;SDS011;39153;52.680;6.172;2023-10-13T03:17:21;58.50;;;32.65;;
53263;SDS011;39153;52.680;6.172;2023-10-13T03:19:58;51.83;;;31.27;;
53263;SDS011;39153;52.680;6.172;2023-10-13T03:22:24;56.40;;;32.42;;
53263;SDS011;39153;52.680;6.172;2023-10-13T03:24:57;57.88;;;32.53;;
53263;SDS011;39153;52.680;6.172;2023-10-13T03:27:43;56.05;;;33.30;;
53263;SDS011;39153;52.680;6.172;2023-10-13T03:30:17;54.30;;;32.80;;
53263;SDS011;39153;52.680;6.172;2023-10-13T03:32:45;49.55;;;32.25;;
53263;SDS011;39153;52.680;6.172;2023-10-13T03:35:14;50.55;;;31.85;;
53263;SDS011;39153;52.680;6.172;2023-10-13T03:37:52;55.90;;;32.85;;
53263;SDS011;39153;52.680;6.172;2023-10-13T03:40:19;57.15;;;33.70;;
53263;SDS011;39153;52.680;6.172;2023-10-13T03:42:45;53.33;;;33.53;;
53263;SDS011;39153;52.680;6.172;2023-10-13T03:45:29;53.80;;;32.92;;
53263;SDS011;39153;52.680;6.172;2023-10-13T03:48:17;55.58;;;32.70;;
53263;SDS011;39153;52.680;6.172;2023-10-13T03:50:51;49.38;;;31.58;;
53263;SDS011;39153;52.680;6.172;2023-10-13T03:53:32;49.30;;;31.92;;
53263;SDS011;39153;52.680;6.172;2023-10-13T03:55:59;47.08;;;30.33;;
53263;SDS011;39153;52.680;6.172;2023-10-13T03:58:40;45.72;;;29.65;;
53263;SDS011;39153;52.680;6.172;2023-10-13T04:01:13;49.60;;;31.60;;
53263;SDS011;39153;52.680;6.172;2023-10-13T04:03:42;50.72;;;30.33;;
53263;SDS011;39153;52.680;6.172;2023-10-13T04:06:27;45.92;;;30.17;;
53263;SDS011;39153;52.680;6.172;2023-10-13T04:09:20;45.90;;;29.92;;
53263;SDS011;39153;52.680;6.172;2023-10-13T04:12:00;51.70;;;32.15;;
53263;SDS011;39153;52.680;6.172;2023-10-13T04:17:18;50.33;;;32.38;;
53263;SDS011;39153;52.680;6.172;2023-10-13T04:19:56;48.28;;;30.48;;
53263;SDS011;39153;52.680;6.172;2023-10-13T04:25:17;57.38;;;21.70;;
53263;SDS011;39153;52.680;6.172;2023-10-13T04:28:01;51.72;;;31.02;;
53263;SDS011;39153;52.680;6.172;2023-10-13T04:30:48;48.05;;;31.48;;
53263;SDS011;39153;52.680;6.172;2023-10-13T04:33:26;47.78;;;30.58;;
53263;SDS011;39153;52.680;6.172;2023-10-13T04:36:12;45.50;;;30.55;;
53263;SDS011;39153;52.680;6.172;2023-10-13T04:38:45;51.15;;;31.35;;
53263;SDS011;39153;52.680;6.172;2023-10-13T04:41:25;44.65;;;29.63;;
53263;SDS011;39153;52.680;6.172;2023-10-13T04:44:11;43.05;;;29.65;;
53263;SDS011;39153;52.680;6.172;2023-10-13T04:46:57;47.40;;;29.90;;
53263;SDS011;39153;52.680;6.172;2023-10-13T04:49:24;43.72;;;29.75;;
53263;SDS011;39153;52.680;6.172;2023-10-13T04:51:59;44.38;;;30.10;;
53263;SDS011;39153;52.680;6.172;2023-10-13T04:54:43;42.58;;;30.05;;
53263;SDS011;39153;52.680;6.172;2023-10-13T04:57:22;47.60;;;31.38;;
53263;SDS011;39153;52.680;6.172;2023-10-13T05:00:03;50.38;;;31.45;;
53263;SDS011;39153;52.680;6.172;2023-10-13T05:02:39;50.97;;;32.47;;
53263;SDS011;39153;52.680;6.172;2023-10-13T05:07:42;43.78;;;29.75;;
53263;SDS011;39153;52.680;6.172;2023-10-13T05:10:26;42.08;;;28.70;;
53263;SDS011;39153;52.680;6.172;2023-10-13T05:13:11;48.92;;;31.10;;
53263;SDS011;39153;52.680;6.172;2023-10-13T05:15:55;50.83;;;30.67;;
53263;SDS011;39153;52.680;6.172;2023-10-13T05:18:40;48.03;;;29.40;;
53263;SDS011;39153;52.680;6.172;2023-10-13T05:21:24;43.33;;;29.00;;
53263;SDS011;39153;52.680;6.172;2023-10-13T05:26:53;41.83;;;28.08;;
53263;SDS011;39153;52.680;6.172;2023-10-13T05:29:41;41.20;;;27.70;;
53263;SDS011;39153;52.680;6.172;2023-10-13T05:32:26;45.95;;;27.30;;
53263;SDS011;39153;52.680;6.172;2023-10-13T05:37:55;37.83;;;26.20;;
53263;SDS011;39153;52.680;6.172;2023-10-13T05:40:39;36.33;;;25.13;;
53263;SDS011;39153;52.680;6.172;2023-10-13T05:43:23;35.28;;;23.88;;
53263;SDS011;39153;52.680;6.172;2023-10-13T05:46:08;34.42;;;24.27;;
53263;SDS011;39153;52.680;6.172;2023-10-13T05:48:52;30.23;;;21.13;;
53263;SDS011;39153;52.680;6.172;2023-10-13T05:51:39;24.05;;;19.27;;
53263;SDS011;39153;52.680;6.172;2023-10-13T05:54:31;23.88;;;18.10;;
53263;SDS011;39153;52.680;6.172;2023-10-13T06:00:00;25.60;;;17.30;;
53263;SDS011;39153;52.680;6.172;2023-10-13T06:05:28;21.05;;;16.13;;
53263;SDS011;39153;52.680;6.172;2023-10-13T06:11:03;15.43;;;12.18;;
53263;SDS011;39153;52.680;6.172;2023-10-13T06:13:48;15.15;;;11.55;;
53263;SDS011;39153;52.680;6.172;2023-10-13T06:16:32;14.63;;;10.25;;
53263;SDS011;39153;52.680;6.172;2023-10-13T06:19:16;15.73;;;11.35;;
53263;SDS011;39153;52.680;6.172;2023-10-13T06:22:00;15.10;;;11.50;;
53263;SDS011;39153;52.680;6.172;2023-10-13T06:24:45;15.05;;;10.48;;
53263;SDS011;39153;52.680;6.172;2023-10-13T06:30:13;11.13;;;9.10;;
53263;SDS011;39153;52.680;6.172;2023-10-13T06:32:39;14.25;;;9.63;;
53263;SDS011;39153;52.680;6.172;2023-10-13T06:35:05;15.02;;;10.23;;
53263;SDS011;39153;52.680;6.172;2023-10-13T06:37:40;12.50;;;9.40;;
53263;SDS011;39153;52.680;6.172;2023-10-13T06:40:10;14.02;;;9.52;;
53263;SDS011;39153;52.680;6.172;2023-10-13T06:42:46;16.05;;;8.52;;
53263;SDS011;39153;52.680;6.172;2023-10-13T06:45:12;17.40;;;7.60;;
53263;SDS011;39153;52.680;6.172;2023-10-13T06:47:38;17.35;;;7.97;;
53263;SDS011;39153;52.680;6.172;2023-10-13T06:50:11;12.82;;;6.93;;
53263;SDS011;39153;52.680;6.172;2023-10-13T06:52:49;13.68;;;6.93;;
53263;SDS011;39153;52.680;6.172;2023-10-13T06:55:19;13.18;;;6.70;;
53263;SDS011;39153;52.680;6.172;2023-10-13T06:57:53;12.33;;;6.80;;
53263;SDS011;39153;52.680;6.172;2023-10-13T07:00:24;14.32;;;8.27;;
53263;SDS011;39153;52.680;6.172;2023-10-13T07:03:00;14.50;;;7.93;;
53263;SDS011;39153;52.680;6.172;2023-10-13T07:05:39;15.57;;;7.50;;
53263;SDS011;39153;52.680;6.172;2023-10-13T07:08:06;14.30;;;7.57;;
53263;SDS011;39153;52.680;6.172;2023-10-13T07:10:33;16.05;;;8.43;;
53263;SDS011;39153;52.680;6.172;2023-10-13T07:13:16;20.10;;;6.75;;
53263;SDS011;39153;52.680;6.172;2023-10-13T07:15:44;11.05;;;7.53;;
53263;SDS011;39153;52.680;6.172;2023-10-13T07:18:14;19.08;;;9.57;;
53263;SDS011;39153;52.680;6.172;2023-10-13T07:20:42;14.20;;;8.32;;
53263;SDS011;39153;52.680;6.172;2023-10-13T07:23:11;18.88;;;9.90;;
53263;SDS011;39153;52.680;6.172;2023-10-13T07:25:43;19.73;;;10.32;;
53263;SDS011;39153;52.680;6.172;2023-10-13T07:28:17;17.52;;;11.55;;
53263;SDS011;39153;52.680;6.172;2023-10-13T07:30:42;19.63;;;13.70;;
53263;SDS011;39153;52.680;6.172;2023-10-13T07:33:20;17.98;;;12.77;;
53263;SDS011;39153;52.680;6.172;2023-10-13T07:35:46;19.52;;;12.50;;
53263;SDS011;39153;52.680;6.172;2023-10-13T07:38:43;17.25;;;11.23;;
53263;SDS011;39153;52.680;6.172;2023-10-13T07:41:13;18.85;;;10.63;;
53263;SDS011;39153;52.680;6.172;2023-10-13T07:43:47;22.40;;;11.15;;
53263;SDS011;39153;52.680;6.172;2023-10-13T07:46:15;15.65;;;9.88;;
53263;SDS011;39153;52.680;6.172;2023-10-13T07:48:41;15.75;;;9.60;;
53263;SDS011;39153;52.680;6.172;2023-10-13T07:51:10;17.50;;;9.18;;
53263;SDS011;39153;52.680;6.172;2023-10-13T07:53:40;17.90;;;8.93;;
53263;SDS011;39153;52.680;6.172;2023-10-13T07:56:08;16.73;;;9.05;;
53263;SDS011;39153;52.680;6.172;2023-10-13T07:58:36;14.70;;;8.40;;
53263;SDS011;39153;52.680;6.172;2023-10-13T08:01:20;15.63;;;9.48;;
53263;SDS011;39153;52.680;6.172;2023-10-13T08:03:46;18.52;;;9.60;;
53263;SDS011;39153;52.680;6.172;2023-10-13T08:06:15;16.48;;;10.35;;
53263;SDS011;39153;52.680;6.172;2023-10-13T08:08:42;20.55;;;10.13;;
53263;SDS011;39153;52.680;6.172;2023-10-13T08:11:12;17.90;;;10.30;;
53263;SDS011;39153;52.680;6.172;2023-10-13T08:13:48;19.20;;;10.43;;
53263;SDS011;39153;52.680;6.172;2023-10-13T08:16:24;19.20;;;10.82;;
53263;SDS011;39153;52.680;6.172;2023-10-13T08:19:24;18.95;;;12.02;;
53263;SDS011;39153;52.680;6.172;2023-10-13T08:22:05;23.50;;;9.98;;
53263;SDS011;39153;52.680;6.172;2023-10-13T08:24:40;23.95;;;10.95;;
53263;SDS011;39153;52.680;6.172;2023-10-13T08:27:06;21.25;;;13.23;;
53263;SDS011;39153;52.680;6.172;2023-10-13T08:29:51;20.55;;;12.98;;
53263;SDS011;39153;52.680;6.172;2023-10-13T08:32:23;20.70;;;15.02;;
53263;SDS011;39153;52.680;6.172;2023-10-13T08:34:53;22.80;;;14.57;;
53263;SDS011;39153;52.680;6.172;2023-10-13T08:37:20;21.85;;;14.13;;
53263;SDS011;39153;52.680;6.172;2023-10-13T08:39:47;26.17;;;14.32;;
53263;SDS011;39153;52.680;6.172;2023-10-13T08:45:07;20.40;;;14.27;;
53263;SDS011;39153;52.680;6.172;2023-10-13T08:47:49;17.63;;;13.38;;
53263;SDS011;39153;52.680;6.172;2023-10-13T08:50:34;29.13;;;11.55;;
53263;SDS011;39153;52.680;6.172;2023-10-13T08:53:22;17.73;;;11.25;;
53263;SDS011;39153;52.680;6.172;2023-10-13T08:56:03;15.82;;;10.23;;
53263;SDS011;39153;52.680;6.172;2023-10-13T08:58:29;17.98;;;9.93;;
53263;SDS011;39153;52.680;6.172;2023-10-13T09:01:14;17.17;;;9.63;;
53263;SDS011;39153;52.680;6.172;2023-10-13T09:04:00;13.30;;;8.25;;
53263;SDS011;39153;52.680;6.172;2023-10-13T09:06:55;13.65;;;7.72;;
53263;SDS011;39153;52.680;6.172;2023-10-13T09:12:17;11.30;;;7.57;;
53263;SDS011;39153;52.680;6.172;2023-10-13T09:17:30;16.35;;;8.40;;
53263;SDS011;39153;52.680;6.172;2023-10-13T09:20:01;13.98;;;8.20;;
53263;SDS011;39153;52.680;6.172;2023-10-13T09:22:48;17.13;;;8.48;;
53263;SDS011;39153;52.680;6.172;2023-10-13T09:25:28;12.00;;;7.13;;
53263;SDS011;39153;52.680;6.172;2023-10-13T09:30:42;15.50;;;8.07;;
53263;SDS011;39153;52.680;6.172;2023-10-13T09:33:12;17.15;;;8.77;;
53263;SDS011;39153;52.680;6.172;2023-10-13T09:35:44;14.07;;;7.72;;
53263;SDS011;39153;52.680;6.172;2023-10-13T09:38:16;14.77;;;7.90;;
53263;SDS011;39153;52.680;6.172;2023-10-13T09:40:43;15.68;;;7.50;;
53263;SDS011;39153;52.680;6.172;2023-10-13T09:43:16;15.43;;;8.25;;
53263;SDS011;39153;52.680;6.172;2023-10-13T09:45:43;16.30;;;7.60;;
53263;SDS011;39153;52.680;6.172;2023-10-13T09:48:31;13.85;;;6.68;;
53263;SDS011;39153;52.680;6.172;2023-10-13T09:50:59;14.35;;;7.28;;
53263;SDS011;39153;52.680;6.172;2023-10-13T09:53:28;15.40;;;6.47;;
53263;SDS011;39153;52.680;6.172;2023-10-13T09:58:38;11.05;;;6.20;;
53263;SDS011;39153;52.680;6.172;2023-10-13T10:01:26;13.95;;;7.00;;
53263;SDS011;39153;52.680;6.172;2023-10-13T10:04:09;17.88;;;7.35;;
53263;SDS011;39153;52.680;6.172;2023-10-13T10:06:51;13.82;;;7.03;;
53263;SDS011;39153;52.680;6.172;2023-10-13T10:09:25;20.17;;;7.55;;
53263;SDS011;39153;52.680;6.172;2023-10-13T10:17:38;15.52;;;7.55;;
53263;SDS011;39153;52.680;6.172;2023-10-13T10:20:08;20.35;;;7.30;;
53263;SDS011;39153;52.680;6.172;2023-10-13T10:22:55;15.10;;;6.22;;
53263;SDS011;39153;52.680;6.172;2023-10-13T10:25:33;15.80;;;7.20;;
53263;SDS011;39153;52.680;6.172;2023-10-13T10:28:07;14.82;;;6.45;;
53263;SDS011;39153;52.680;6.172;2023-10-13T10:30:33;16.93;;;7.53;;
53263;SDS011;39153;52.680;6.172;2023-10-13T10:33:04;15.65;;;6.78;;
53263;SDS011;39153;52.680;6.172;2023-10-13T10:35:47;13.10;;;6.53;;
53263;SDS011;39153;52.680;6.172;2023-10-13T10:38:24;14.63;;;7.00;;
53263;SDS011;39153;52.680;6.172;2023-10-13T10:40:58;14.95;;;6.60;;
53263;SDS011;39153;52.680;6.172;2023-10-13T10:43:34;19.00;;;6.88;;
53263;SDS011;39153;52.680;6.172;2023-10-13T10:46:26;18.42;;;6.82;;
53263;SDS011;39153;52.680;6.172;2023-10-13T10:48:56;16.38;;;6.45;;
53263;SDS011;39153;52.680;6.172;2023-10-13T10:51:26;15.10;;;6.70;;
53263;SDS011;39153;52.680;6.172;2023-10-13T10:53:56;14.15;;;6.70;;
53263;SDS011;39153;52.680;6.172;2023-10-13T10:56:26;15.90;;;6.65;;
53263;SDS011;39153;52.680;6.172;2023-10-13T10:59:02;19.85;;;6.57;;
53263;SDS011;39153;52.680;6.172;2023-10-13T11:01:32;16.55;;;7.35;;
53263;SDS011;39153;52.680;6.172;2023-10-13T11:04:09;13.35;;;6.88;;
53263;SDS011;39153;52.680;6.172;2023-10-13T11:06:56;14.15;;;6.47;;
53263;SDS011;39153;52.680;6.172;2023-10-13T11:09:32;13.48;;;6.63;;
53263;SDS011;39153;52.680;6.172;2023-10-13T11:12:11;14.93;;;6.65;;
53263;SDS011;39153;52.680;6.172;2023-10-13T11:14:42;13.82;;;6.10;;
53263;SDS011;39153;52.680;6.172;2023-10-13T11:17:18;18.02;;;6.47;;
53263;SDS011;39153;52.680;6.172;2023-10-13T11:20:16;17.15;;;6.07;;
53263;SDS011;39153;52.680;6.172;2023-10-13T11:22:50;19.85;;;7.03;;
53263;SDS011;39153;52.680;6.172;2023-10-13T11:25:21;16.13;;;6.47;;
53263;SDS011;39153;52.680;6.172;2023-10-13T11:28:13;16.58;;;7.28;;
53263;SDS011;39153;52.680;6.172;2023-10-13T11:30:49;16.08;;;6.50;;
53263;SDS011;39153;52.680;6.172;2023-10-13T11:33:15;15.95;;;6.30;;
53263;SDS011;39153;52.680;6.172;2023-10-13T11:35:54;14.13;;;5.97;;
53263;SDS011;39153;52.680;6.172;2023-10-13T11:38:24;15.27;;;6.10;;
53263;SDS011;39153;52.680;6.172;2023-10-13T11:40:55;22.00;;;6.63;;
53263;SDS011;39153;52.680;6.172;2023-10-13T11:43:35;16.58;;;6.70;;
53263;SDS011;39153;52.680;6.172;2023-10-13T11:46:09;14.27;;;6.03;;
53263;SDS011;39153;52.680;6.172;2023-10-13T11:48:34;18.15;;;6.45;;
53263;SDS011;39153;52.680;6.172;2023-10-13T11:51:08;12.38;;;6.18;;
53263;SDS011;39153;52.680;6.172;2023-10-13T11:53:57;15.52;;;6.15;;
53263;SDS011;39153;52.680;6.172;2023-10-13T11:56:24;14.65;;;6.40;;
53263;SDS011;39153;52.680;6.172;2023-10-13T11:58:50;16.17;;;6.70;;
53263;SDS011;39153;52.680;6.172;2023-10-13T12:01:16;16.58;;;6.95;;
53263;SDS011;39153;52.680;6.172;2023-10-13T12:03:43;17.17;;;6.70;;
53263;SDS011;39153;52.680;6.172;2023-10-13T12:06:28;16.77;;;6.57;;
53263;SDS011;39153;52.680;6.172;2023-10-13T12:09:11;13.13;;;6.00;;
53263;SDS011;39153;52.680;6.172;2023-10-13T12:11:38;14.95;;;7.13;;
53263;SDS011;39153;52.680;6.172;2023-10-13T12:14:06;15.82;;;6.00;;
53263;SDS011;39153;52.680;6.172;2023-10-13T12:16:51;14.95;;;6.50;;
53263;SDS011;39153;52.680;6.172;2023-10-13T12:19:17;15.13;;;6.75;;
53263;SDS011;39153;52.680;6.172;2023-10-13T12:21:48;15.27;;;6.50;;
53263;SDS011;39153;52.680;6.172;2023-10-13T12:24:14;13.77;;;6.32;;
53263;SDS011;39153;52.680;6.172;2023-10-13T12:26:58;20.55;;;7.25;;
53263;SDS011;39153;52.680;6.172;2023-10-13T12:29:24;21.25;;;6.32;;
53263;SDS011;39153;52.680;6.172;2023-10-13T12:31:56;17.15;;;6.53;;
53263;SDS011;39153;52.680;6.172;2023-10-13T12:34:46;20.35;;;6.75;;
53263;SDS011;39153;52.680;6.172;2023-10-13T12:37:27;15.73;;;6.10;;
53263;SDS011;39153;52.680;6.172;2023-10-13T12:40:12;17.85;;;6.60;;
53263;SDS011;39153;52.680;6.172;2023-10-13T12:42:58;14.98;;;6.22;;
53263;SDS011;39153;52.680;6.172;2023-10-13T12:45:43;15.10;;;6.07;;
53263;SDS011;39153;52.680;6.172;2023-10-13T12:48:28;14.68;;;6.47;;
53263;SDS011;39153;52.680;6.172;2023-10-13T12:51:13;17.95;;;6.40;;
53263;SDS011;39153;52.680;6.172;2023-10-13T12:53:48;16.45;;;6.80;;
53263;SDS011;39153;52.680;6.172;2023-10-13T12:56:15;15.38;;;6.40;;
53263;SDS011;39153;52.680;6.172;2023-10-13T12:58:42;16.85;;;6.28;;
53263;SDS011;39153;52.680;6.172;2023-10-13T13:01:20;13.48;;;6.68;;
53263;SDS011;39153;52.680;6.172;2023-10-13T13:03:47;16.77;;;6.20;;
53263;SDS011;39153;52.680;6.172;2023-10-13T13:06:21;17.25;;;6.80;;
53263;SDS011;39153;52.680;6.172;2023-10-13T13:08:59;12.60;;;6.20;;
53263;SDS011;39153;52.680;6.172;2023-10-13T13:11:25;15.80;;;6.70;;
53263;SDS011;39153;52.680;6.172;2023-10-13T13:13:54;13.38;;;5.93;;
53263;SDS011;39153;52.680;6.172;2023-10-13T13:16:20;17.42;;;6.78;;
53263;SDS011;39153;52.680;6.172;2023-10-13T13:18:55;18.15;;;6.38;;
53263;SDS011;39153;52.680;6.172;2023-10-13T13:21:21;16.13;;;6.47;;
53263;SDS011;39153;52.680;6.172;2023-10-13T13:23:50;15.10;;;6.90;;
53263;SDS011;39153;52.680;6.172;2023-10-13T13:26:16;17.80;;;7.07;;
53263;SDS011;39153;52.680;6.172;2023-10-13T13:28:43;15.50;;;7.07;;
53263;SDS011;39153;52.680;6.172;2023-10-13T13:31:10;18.58;;;7.80;;
53263;SDS011;39153;52.680;6.172;2023-10-13T13:33:40;20.58;;;6.93;;
53263;SDS011;39153;52.680;6.172;2023-10-13T13:36:08;18.70;;;7.10;;
53263;SDS011;39153;52.680;6.172;2023-10-13T13:38:40;20.75;;;8.38;;
53263;SDS011;39153;52.680;6.172;2023-10-13T13:41:12;19.50;;;8.65;;
53263;SDS011;39153;52.680;6.172;2023-10-13T13:43:45;19.10;;;7.88;;
53263;SDS011;39153;52.680;6.172;2023-10-13T13:46:24;17.98;;;8.35;;
53263;SDS011;39153;52.680;6.172;2023-10-13T13:48:52;20.00;;;8.02;;
53263;SDS011;39153;52.680;6.172;2023-10-13T13:51:26;19.08;;;8.65;;
53263;SDS011;39153;52.680;6.172;2023-10-13T13:53:53;17.75;;;8.23;;
53263;SDS011;39153;52.680;6.172;2023-10-13T13:56:20;21.55;;;8.90;;
53263;SDS011;39153;52.680;6.172;2023-10-13T13:58:46;16.83;;;8.68;;
53263;SDS011;39153;52.680;6.172;2023-10-13T14:01:15;16.85;;;8.68;;
53263;SDS011;39153;52.680;6.172;2023-10-13T14:03:43;17.23;;;8.85;;
53263;SDS011;39153;52.680;6.172;2023-10-13T14:06:11;19.85;;;8.52;;
53263;SDS011;39153;52.680;6.172;2023-10-13T14:08:46;19.38;;;8.52;;
53263;SDS011;39153;52.680;6.172;2023-10-13T14:11:24;20.40;;;9.02;;
53263;SDS011;39153;52.680;6.172;2023-10-13T14:14:03;19.75;;;8.55;;
53263;SDS011;39153;52.680;6.172;2023-10-13T14:16:30;17.25;;;9.05;;
53263;SDS011;39153;52.680;6.172;2023-10-13T14:18:58;18.17;;;9.00;;
53263;SDS011;39153;52.680;6.172;2023-10-13T14:21:27;21.85;;;8.35;;
53263;SDS011;39153;52.680;6.172;2023-10-13T14:23:53;17.55;;;8.63;;
53263;SDS011;39153;52.680;6.172;2023-10-13T14:26:19;17.00;;;8.30;;
53263;SDS011;39153;52.680;6.172;2023-10-13T14:28:49;17.50;;;8.70;;
53263;SDS011;39153;52.680;6.172;2023-10-13T14:31:31;19.77;;;8.10;;
53263;SDS011;39153;52.680;6.172;2023-10-13T14:33:57;17.40;;;8.60;;
53263;SDS011;39153;52.680;6.172;2023-10-13T14:36:23;17.98;;;8.00;;
53263;SDS011;39153;52.680;6.172;2023-10-13T14:38:53;14.93;;;7.85;;
53263;SDS011;39153;52.680;6.172;2023-10-13T14:41:20;22.45;;;9.02;;
53263;SDS011;39153;52.680;6.172;2023-10-13T14:43:46;20.08;;;8.95;;
53263;SDS011;39153;52.680;6.172;2023-10-13T14:46:18;21.90;;;8.90;;
53263;SDS011;39153;52.680;6.172;2023-10-13T14:48:48;19.50;;;9.23;;
53263;SDS011;39153;52.680;6.172;2023-10-13T14:51:17;16.40;;;8.85;;
53263;SDS011;39153;52.680;6.172;2023-10-13T14:53:43;20.15;;;9.05;;
53263;SDS011;39153;52.680;6.172;2023-10-13T14:56:14;17.08;;;9.40;;
53263;SDS011;39153;52.680;6.172;2023-10-13T14:58:42;19.15;;;9.27;;
53263;SDS011;39153;52.680;6.172;2023-10-13T15:01:12;17.77;;;9.60;;
53263;SDS011;39153;52.680;6.172;2023-10-13T15:03:44;18.83;;;10.30;;
53263;SDS011;39153;52.680;6.172;2023-10-13T15:08:46;18.98;;;9.75;;
53263;SDS011;39153;52.680;6.172;2023-10-13T15:11:13;20.58;;;9.90;;
53263;SDS011;39153;52.680;6.172;2023-10-13T15:13:41;19.48;;;10.13;;
53263;SDS011;39153;52.680;6.172;2023-10-13T15:16:19;22.58;;;10.48;;
53263;SDS011;39153;52.680;6.172;2023-10-13T15:18:47;22.63;;;10.88;;
53263;SDS011;39153;52.680;6.172;2023-10-13T15:21:20;17.83;;;10.30;;
53263;SDS011;39153;52.680;6.172;2023-10-13T15:24:06;20.90;;;11.13;;
53263;SDS011;39153;52.680;6.172;2023-10-13T15:26:39;18.48;;;11.30;;
53263;SDS011;39153;52.680;6.172;2023-10-13T15:29:07;21.10;;;12.10;;
53263;SDS011;39153;52.680;6.172;2023-10-13T15:31:38;23.70;;;11.30;;
53263;SDS011;39153;52.680;6.172;2023-10-13T15:34:08;20.45;;;11.30;;
53263;SDS011;39153;52.680;6.172;2023-10-13T15:36:43;21.20;;;11.57;;
53263;SDS011;39153;52.680;6.172;2023-10-13T15:39:10;17.27;;;10.93;;
53263;SDS011;39153;52.680;6.172;2023-10-13T15:41:36;20.45;;;11.27;;
53263;SDS011;39153;52.680;6.172;2023-10-13T15:44:05;20.02;;;10.10;;
53263;SDS011;39153;52.680;6.172;2023-10-13T15:46:36;19.70;;;9.00;;
53263;SDS011;39153;52.680;6.172;2023-10-13T15:49:02;15.40;;;7.47;;
53263;SDS011;39153;52.680;6.172;2023-10-13T15:51:34;13.50;;;7.07;;
53263;SDS011;39153;52.680;6.172;2023-10-13T15:54:03;11.30;;;6.10;;